Elvira, Argentina
Current Conditions -  °F | °C
As of 5:00 PM on Sunday 25 Jan 2015 (Local Time) from SAEZ Reporting Station
Clear Clear  
Wind Chill: 34°   Ceiling: Unl
Heat Index: 36°   Visibility: 6mi
Dew Point: 19°   Wind: 6mph
Humidity: 41%   Direction: 220°SW
Pressure: 29.77"   Gusts: NA
Location:  35.2°S, 59.35°W
Report Text: SAEZ 252000Z 22005KT 160V250 CAVOK 34/19 Q1008
Loading
Personal Weather Stations






























Interactive Weather Map New forecast layout! Learn more

10-Day Weather Forecast

Advertisements
Track Severe Weather on mobile